Time;durP1;ratioP1;P1;durP2;ratioP2;P2;SDS_P1;SDS_P2;PMS_P1;PMS_P2;Temp;Humidity;BMP_temperature;BMP_pressure;BME280_temperature;BME280_humidity;BME280_pressure;Samples;Min_cycle;Max_cycle;Signal;HPM_P1;HPM_P2
2022/11/24 00:01:10;;;;;;;52.65;39.45;;;205.00;2252.80;;;;;;5001527;28;20022;-58
2022/11/24 00:03:36;;;;;;;55.05;38.75;;;205.00;2252.80;;;;;;4999954;28;20487;-64
2022/11/24 00:06:03;;;;;;;55.15;38.83;;;205.10;2252.80;;;;;;4999942;28;20013;-60
2022/11/24 00:08:29;;;;;;;52.60;37.00;;;205.00;2252.80;;;;;;5001678;28;20026;-62
2022/11/24 00:10:55;;;;;;;53.83;34.50;;;205.10;2252.80;;;;;;5000044;28;20028;-59
2022/11/24 00:13:21;;;;;;;48.13;34.85;;;205.00;2252.80;;;;;;5000126;28;20443;-57
2022/11/24 00:15:46;;;;;;;54.85;37.70;;;204.80;2252.80;;;;;;5003845;28;20033;-59
2022/11/24 00:18:12;;;;;;;61.78;41.33;;;180.10;2252.80;;;;;;5003679;28;20049;-61
2022/11/24 00:20:38;;;;;;;66.88;45.85;;;180.10;2252.80;;;;;;5010027;28;20018;-58
2022/11/24 00:23:03;;;;;;;63.63;40.95;;;179.90;2252.80;;;;;;5013552;28;20033;-58
2022/11/24 00:25:29;;;;;;;66.63;44.67;;;179.90;2252.80;;;;;;5013568;28;20085;-58
2022/11/24 00:27:54;;;;;;;60.83;42.78;;;180.10;2252.80;;;;;;5013189;28;20117;-58
2022/11/24 00:30:20;;;;;;;67.97;46.15;;;204.80;2252.80;;;;;;5013423;28;20025;-66
2022/11/24 00:36:08;;;;;;;42.63;30.10;;;204.90;2252.80;;;;;;5013166;28;20133;-58
2022/11/24 00:38:33;;;;;;;40.60;30.77;;;204.80;2252.80;;;;;;5013030;28;20109;-58
2022/11/24 00:40:59;;;;;;;40.03;27.95;;;204.90;2252.80;;;;;;5013069;28;20029;-59
2022/11/24 00:43:25;;;;;;;39.20;27.85;;;204.80;2252.80;;;;;;5012988;28;20044;-61
2022/11/24 00:45:50;;;;;;;50.40;34.58;;;204.80;2252.80;;;;;;5013860;28;20118;-58
2022/11/24 00:51:38;;;;;;;36.55;26.98;;;204.90;2252.80;;;;;;5013347;28;20071;-67
2022/11/24 00:54:05;;;;;;;47.30;34.20;;;204.90;2252.80;;;;;;5013150;28;20030;-67
2022/11/24 00:56:30;;;;;;;47.20;32.00;;;205.00;2252.80;;;;;;5013212;28;20105;-59
2022/11/24 00:58:56;;;;;;;54.80;34.25;;;204.90;2252.80;;;;;;5013190;28;20599;-67
2022/11/24 01:01:25;;;;;;;70.20;49.38;;;204.90;2252.80;;;;;;5013182;28;20033;-58
2022/11/24 01:07:13;;;;;;;73.88;49.45;;;205.00;2252.80;;;;;;5016246;28;20076;-59
2022/11/24 01:09:41;;;;;;;63.25;44.40;;;205.00;2252.80;;;;;;5016833;28;20026;-58
2022/11/24 01:12:07;;;;;;;62.50;42.30;;;205.00;2252.80;;;;;;5016932;28;20085;-58
2022/11/24 01:14:33;;;;;;;61.15;47.70;;;205.00;2252.80;;;;;;5016640;28;20038;-66
2022/11/24 01:16:59;;;;;;;44.63;31.95;;;205.00;2252.80;;;;;;5016270;28;20041;-68
2022/11/24 01:22:47;;;;;;;34.72;27.63;;;205.00;2252.80;;;;;;5016548;28;20033;-58
2022/11/24 01:25:13;;;;;;;36.38;27.17;;;205.00;2252.80;;;;;;5016620;28;20030;-64
2022/11/24 01:27:39;;;;;;;64.72;36.78;;;204.90;2252.80;;;;;;5016571;28;20030;-57
2022/11/24 01:30:06;;;;;;;37.60;24.52;;;204.90;2252.80;;;;;;5016264;28;20361;-58
2022/11/24 01:32:34;;;;;;;22.33;17.27;;;204.90;2252.80;;;;;;5016016;28;20064;-66
2022/11/24 01:38:23;;;;;;;45.78;29.40;;;180.00;2252.80;;;;;;5016163;28;20157;-59
2022/11/24 01:40:48;;;;;;;44.00;30.15;;;179.80;2252.80;;;;;;5016049;28;20464;-57
2022/11/24 01:43:17;;;;;;;53.85;33.75;;;179.80;2252.80;;;;;;5015885;28;20032;-58
2022/11/24 01:45:44;;;;;;;44.97;28.40;;;179.90;2252.80;;;;;;5016011;28;20113;-58
2022/11/24 01:48:22;;;;;;;31.33;24.02;;;179.90;2252.80;;;;;;5016137;28;20022;-58
2022/11/24 01:50:54;;;;;;;45.15;30.75;;;179.90;2252.80;;;;;;5015838;28;20084;-58
2022/11/24 01:53:22;;;;;;;32.83;23.02;;;180.00;2252.80;;;;;;5015670;28;20546;-57
2022/11/24 01:55:50;;;;;;;26.75;20.17;;;180.10;2252.80;;;;;;5015732;28;20030;-64
2022/11/24 01:58:20;;;;;;;40.47;25.63;;;180.10;2252.80;;;;;;5012655;28;20117;-58
2022/11/24 02:00:46;;;;;;;27.23;18.70;;;180.10;2252.80;;;;;;5012688;28;20112;-62
2022/11/24 02:03:16;;;;;;;25.58;17.13;;;180.10;2252.80;;;;;;5012843;28;20065;-64
2022/11/24 02:05:46;;;;;;;16.83;12.32;;;180.10;2252.80;;;;;;5012588;28;20053;-59
2022/11/24 02:08:36;;;;;;;19.13;13.60;;;180.10;2252.80;;;;;;5012456;28;20034;-59
2022/11/24 02:11:03;;;;;;;24.73;15.32;;;180.00;2252.80;;;;;;5012497;28;20075;-59
2022/11/24 02:13:29;;;;;;;33.22;23.10;;;180.00;2252.80;;;;;;5012489;28;20095;-60
2022/11/24 02:15:55;;;;;;;23.30;17.15;;;180.00;2252.80;;;;;;5012366;28;20046;-58
2022/11/24 02:18:21;;;;;;;24.08;18.05;;;180.00;2252.80;;;;;;5012603;28;20072;-57
2022/11/24 02:20:47;;;;;;;20.10;15.05;;;180.00;2252.80;;;;;;5012690;28;20026;-66
2022/11/24 02:23:37;;;;;;;28.60;18.05;;;180.00;2252.80;;;;;;5012491;28;20116;-58
2022/11/24 02:26:11;;;;;;;23.40;15.73;;;180.00;2252.80;;;;;;5012066;28;20457;-59
2022/11/24 02:28:37;;;;;;;25.33;16.67;;;180.00;2252.80;;;;;;5012357;28;20109;-58
2022/11/24 02:31:04;;;;;;;26.85;16.90;;;180.10;2252.80;;;;;;5012383;28;20029;-59
2022/11/24 02:33:32;;;;;;;19.83;15.07;;;180.10;2252.80;;;;;;5012388;28;20388;-57
2022/11/24 02:35:57;;;;;;;18.55;13.18;;;180.10;2252.80;;;;;;5012235;28;20468;-66
2022/11/24 02:38:33;;;;;;;18.77;12.90;;;204.80;2252.80;;;;;;5011968;28;20041;-58
2022/11/24 02:41:06;;;;;;;15.20;10.00;;;204.80;2252.80;;;;;;5011986;28;20551;-66
2022/11/24 02:43:38;;;;;;;20.30;13.65;;;180.10;2252.80;;;;;;5012078;28;20380;-59
2022/11/24 02:46:04;;;;;;;24.02;13.52;;;204.80;2252.80;;;;;;5011632;28;20037;-58
2022/11/24 02:48:29;;;;;;;13.23;7.60;;;180.10;2252.80;;;;;;5011896;28;20046;-58
2022/11/24 02:50:55;;;;;;;25.42;13.98;;;180.10;2252.80;;;;;;5011959;28;20517;-59
2022/11/24 02:53:21;;;;;;;13.00;9.05;;;180.10;2252.80;;;;;;5011774;28;20388;-59
2022/11/24 02:55:46;;;;;;;11.65;7.82;;;180.10;2252.80;;;;;;5011909;28;20101;-59
2022/11/24 02:58:13;;;;;;;8.00;6.13;;;180.00;2252.80;;;;;;5011870;28;20028;-59
2022/11/24 03:00:39;;;;;;;9.32;6.88;;;179.90;2252.80;;;;;;5011645;28;20420;-57
2022/11/24 03:03:05;;;;;;;12.93;7.10;;;179.90;2252.80;;;;;;5011444;28;20113;-59
2022/11/24 03:05:30;;;;;;;10.10;6.53;;;179.90;2252.80;;;;;;5011481;28;20026;-59
2022/11/24 03:07:56;;;;;;;9.77;6.90;;;179.90;2252.80;;;;;;5011428;28;20060;-59
2022/11/24 03:10:23;;;;;;;8.68;7.05;;;179.90;2252.80;;;;;;5011425;28;20026;-59
2022/11/24 03:12:48;;;;;;;5.60;4.55;;;180.00;2252.80;;;;;;5011730;28;20034;-68
2022/11/24 03:15:14;;;;;;;7.15;4.60;;;180.00;2252.80;;;;;;4993503;28;20407;-59
2022/11/24 03:17:40;;;;;;;6.40;3.90;;;180.00;2252.80;;;;;;5011354;28;20041;-59
2022/11/24 03:20:06;;;;;;;7.13;5.68;;;180.00;2252.80;;;;;;5011360;28;20060;-68
2022/11/24 03:22:32;;;;;;;7.65;6.53;;;180.10;2252.80;;;;;;5010896;28;20025;-60
2022/11/24 03:24:58;;;;;;;6.30;4.47;;;180.10;2252.80;;;;;;5011277;28;20437;-59
2022/11/24 03:27:24;;;;;;;12.68;7.28;;;204.80;2252.80;;;;;;5011357;28;20026;-68
2022/11/24 03:29:49;;;;;;;11.40;6.63;;;180.10;2252.80;;;;;;5010531;28;20132;-67
2022/11/24 03:32:15;;;;;;;10.30;6.70;;;180.10;2252.80;;;;;;5010986;28;20495;-58
2022/11/24 03:34:41;;;;;;;11.80;7.55;;;180.10;2252.80;;;;;;5011253;28;20038;-58
2022/11/24 03:37:06;;;;;;;16.70;8.93;;;180.10;2252.80;;;;;;5010882;28;20487;-58
2022/11/24 03:39:32;;;;;;;8.82;5.75;;;180.10;2252.80;;;;;;5010695;28;20049;-60
2022/11/24 03:41:57;;;;;;;7.45;4.47;;;180.10;2252.80;;;;;;5010970;28;20029;-58
2022/11/24 03:44:23;;;;;;;6.78;4.60;;;180.10;2252.80;;;;;;5010696;28;20022;-58
2022/11/24 03:46:50;;;;;;;6.55;4.03;;;180.10;2252.80;;;;;;5010914;28;20034;-65
2022/11/24 03:49:16;;;;;;;6.55;4.85;;;180.10;2252.80;;;;;;5010900;28;20388;-58
2022/11/24 03:51:42;;;;;;;5.80;4.28;;;180.10;2252.80;;;;;;5010775;28;20026;-67
2022/11/24 03:54:08;;;;;;;8.43;5.63;;;180.00;2252.80;;;;;;5010888;28;20076;-58
2022/11/24 03:56:33;;;;;;;8.50;5.32;;;179.90;2252.80;;;;;;5010334;28;20076;-59
2022/11/24 03:58:59;;;;;;;7.65;5.70;;;179.80;2252.80;;;;;;5010621;28;20076;-58
2022/11/24 04:01:25;;;;;;;7.68;4.93;;;179.70;2252.80;;;;;;5010607;28;20029;-58
2022/11/24 04:03:50;;;;;;;9.13;5.97;;;179.70;2252.80;;;;;;5010889;28;20030;-58
2022/11/24 04:06:16;;;;;;;8.20;5.22;;;179.70;2252.80;;;;;;5010370;28;20057;-59
2022/11/24 04:08:42;;;;;;;8.98;5.75;;;179.70;2252.80;;;;;;5010711;28;20033;-58
2022/11/24 04:11:07;;;;;;;7.70;5.47;;;179.80;2252.80;;;;;;5010897;28;20033;-58
2022/11/24 04:13:33;;;;;;;8.75;5.97;;;179.80;2252.80;;;;;;5010115;28;20030;-59
2022/11/24 04:15:59;;;;;;;6.82;4.53;;;179.80;2252.80;;;;;;5010287;28;20045;-59
2022/11/24 04:18:24;;;;;;;11.57;6.97;;;179.80;2252.80;;;;;;5010115;28;20033;-59
2022/11/24 04:20:51;;;;;;;13.27;6.03;;;179.70;2252.80;;;;;;5010346;28;20439;-61
2022/11/24 04:23:17;;;;;;;8.80;6.35;;;179.70;2252.80;;;;;;5010569;28;20022;-57
2022/11/24 04:25:42;;;;;;;14.32;9.48;;;179.70;2252.80;;;;;;5010502;28;20026;-59
2022/11/24 04:28:08;;;;;;;9.65;7.03;;;179.70;2252.80;;;;;;5010697;28;20396;-58
2022/11/24 04:30:35;;;;;;;10.23;6.68;;;179.70;2252.80;;;;;;5010542;28;20026;-59
2022/11/24 04:33:01;;;;;;;8.52;5.78;;;179.70;2252.80;;;;;;5010385;28;20026;-58
2022/11/24 04:35:27;;;;;;;13.75;8.18;;;179.70;2252.80;;;;;;5010168;28;20030;-67
2022/11/24 04:37:52;;;;;;;10.15;5.57;;;179.70;2252.80;;;;;;5010308;28;20053;-58
2022/11/24 04:40:18;;;;;;;10.43;7.75;;;179.70;2252.80;;;;;;5010609;28;20060;-58
2022/11/24 04:42:55;;;;;;;11.63;7.65;;;179.70;2252.80;;;;;;5014182;28;20022;-58
2022/11/24 04:45:21;;;;;;;12.75;8.00;;;179.70;2252.80;;;;;;5014411;28;20128;-66
2022/11/24 04:47:47;;;;;;;19.40;11.18;;;179.70;2252.80;;;;;;5014172;28;20034;-58
2022/11/24 04:50:13;;;;;;;15.38;9.30;;;179.90;2252.80;;;;;;5014010;28;20048;-58
2022/11/24 04:52:38;;;;;;;12.07;8.57;;;179.90;2252.80;;;;;;5013998;28;20368;-58
2022/11/24 04:55:04;;;;;;;11.05;6.03;;;180.00;2252.80;;;;;;5013873;28;20380;-58
2022/11/24 04:57:30;;;;;;;16.85;8.80;;;180.00;2252.80;;;;;;5014459;28;20026;-59
2022/11/24 04:59:56;;;;;;;15.27;9.30;;;180.00;2252.80;;;;;;5013895;28;20030;-58
2022/11/24 05:02:23;;;;;;;13.55;8.57;;;179.90;2252.80;;;;;;5014162;28;20033;-59
2022/11/24 05:04:49;;;;;;;16.23;10.15;;;179.90;2252.80;;;;;;5013737;28;20026;-66
2022/11/24 05:07:16;;;;;;;16.23;9.45;;;179.80;2252.80;;;;;;5013749;28;20525;-58
2022/11/24 05:12:30;;;;;;;13.32;9.15;;;179.80;2252.80;;;;;;5013809;28;20494;-58
2022/11/24 05:15:00;;;;;;;9.73;6.70;;;179.70;2252.80;;;;;;5013740;28;20034;-58
2022/11/24 05:17:30;;;;;;;14.85;10.18;;;179.70;2252.80;;;;;;5013321;28;20050;-59
2022/11/24 05:19:56;;;;;;;9.02;6.97;;;179.70;2252.80;;;;;;5013654;28;20046;-59
2022/11/24 05:22:23;;;;;;;18.42;11.80;;;179.60;2252.80;;;;;;5013308;28;20116;-59
2022/11/24 05:24:48;;;;;;;16.25;8.52;;;179.60;2252.80;;;;;;5013841;28;20026;-58
2022/11/24 05:27:14;;;;;;;13.55;8.02;;;179.50;2252.80;;;;;;5013333;28;20026;-68
2022/11/24 05:29:40;;;;;;;17.35;10.30;;;179.50;2252.80;;;;;;5013651;28;20099;-58
2022/11/24 05:32:06;;;;;;;12.23;8.60;;;179.50;2252.80;;;;;;5013187;28;20547;-60
2022/11/24 05:34:32;;;;;;;13.40;8.82;;;179.40;2252.80;;;;;;5013267;28;20072;-58
2022/11/24 05:37:01;;;;;;;16.65;9.88;;;179.30;2252.80;;;;;;5013187;28;20400;-58
2022/11/24 05:39:29;;;;;;;14.02;9.73;;;179.30;2252.80;;;;;;5013620;28;20030;-58
2022/11/24 05:41:55;;;;;;;13.88;8.95;;;179.30;2252.80;;;;;;5012966;28;20026;-58
2022/11/24 05:44:21;;;;;;;13.23;7.93;;;179.20;2252.80;;;;;;5013489;28;20025;-57
2022/11/24 05:46:46;;;;;;;20.73;13.95;;;179.20;2252.80;;;;;;5012712;28;20374;-63
2022/11/24 05:49:12;;;;;;;21.67;11.07;;;179.30;2252.80;;;;;;5013049;28;20053;-59
2022/11/24 05:51:38;;;;;;;13.45;8.40;;;179.30;2252.80;;;;;;5012279;28;20022;-66
2022/11/24 05:54:03;;;;;;;14.88;10.95;;;179.30;2252.80;;;;;;5012821;28;20050;-59
2022/11/24 05:56:29;;;;;;;15.90;8.60;;;179.30;2252.80;;;;;;5013263;28;20593;-67
2022/11/24 05:58:55;;;;;;;14.13;7.78;;;179.40;2252.80;;;;;;5012992;28;20033;-67
2022/11/24 06:01:20;;;;;;;11.95;8.20;;;179.50;2252.80;;;;;;5012966;28;20025;-58
2022/11/24 06:03:46;;;;;;;13.93;9.90;;;179.50;2252.80;;;;;;5012485;28;20029;-58
2022/11/24 06:06:12;;;;;;;14.75;8.35;;;179.60;2252.80;;;;;;5012524;28;20026;-60
2022/11/24 06:08:38;;;;;;;17.95;9.32;;;179.80;2252.80;;;;;;5012568;28;20037;-59
2022/11/24 06:11:19;;;;;;;12.25;8.90;;;179.90;2252.80;;;;;;5012821;28;20021;-58
2022/11/24 06:13:47;;;;;;;16.38;9.50;;;180.10;2252.80;;;;;;5012491;28;20034;-58
2022/11/24 06:16:13;;;;;;;16.40;11.15;;;204.90;2252.80;;;;;;5012207;28;20044;-59
2022/11/24 06:18:39;;;;;;;14.38;8.20;;;205.00;2252.80;;;;;;5012776;28;20088;-58
2022/11/24 06:21:06;;;;;;;19.92;11.35;;;205.10;2252.80;;;;;;5012453;28;20018;-66
2022/11/24 06:23:32;;;;;;;13.13;8.43;;;205.20;2252.80;;;;;;5012584;28;20189;-58
2022/11/24 06:25:58;;;;;;;56.30;42.70;;;205.10;2252.80;;;;;;5012363;28;20053;-58
2022/11/24 06:28:25;;;;;;;47.75;29.05;;;205.10;2252.80;;;;;;5012072;28;20400;-66
2022/11/24 06:30:51;;;;;;;12.45;8.98;;;205.10;2252.80;;;;;;5012262;28;20049;-58
2022/11/24 06:33:17;;;;;;;20.50;13.65;;;205.10;2252.80;;;;;;5012032;28;20041;-59
2022/11/24 06:35:42;;;;;;;35.05;24.23;;;205.00;2252.80;;;;;;5012117;28;20026;-63
2022/11/24 06:38:09;;;;;;;14.35;10.85;;;205.00;2252.80;;;;;;5012157;28;20030;-58
2022/11/24 06:40:34;;;;;;;27.55;17.88;;;205.00;2252.80;;;;;;5011867;28;20095;-58
2022/11/24 06:43:00;;;;;;;15.50;11.70;;;205.10;2252.80;;;;;;5012088;28;20468;-58
2022/11/24 06:45:26;;;;;;;28.45;18.83;;;205.10;2252.80;;;;;;5011987;28;20030;-59
2022/11/24 06:47:55;;;;;;;19.10;15.07;;;205.20;2252.80;;;;;;5012034;28;20029;-58
2022/11/24 06:50:21;;;;;;;37.13;23.90;;;205.20;2252.80;;;;;;5011802;28;20058;-58
2022/11/24 06:52:47;;;;;;;46.40;31.98;;;205.20;2252.80;;;;;;5011710;28;20416;-59
2022/11/24 06:55:13;;;;;;;26.25;19.92;;;205.20;2252.80;;;;;;5012038;28;20033;-59
2022/11/24 06:57:38;;;;;;;17.33;13.57;;;205.10;2252.80;;;;;;5011841;28;20522;-58
2022/11/24 07:00:06;;;;;;;68.05;40.05;;;205.10;2252.80;;;;;;5011646;28;20022;-63
2022/11/24 07:02:32;;;;;;;30.08;21.50;;;205.10;2252.80;;;;;;5011613;28;20054;-60
2022/11/24 07:04:58;;;;;;;22.63;16.83;;;205.20;2252.80;;;;;;5011112;28;20526;-62
2022/11/24 07:07:24;;;;;;;36.53;32.58;;;205.30;2252.80;;;;;;5011334;28;20093;-67
2022/11/24 07:09:49;;;;;;;18.85;14.20;;;205.30;2252.80;;;;;;5011482;28;20037;-67
2022/11/24 07:12:15;;;;;;;38.03;26.77;;;205.30;2252.80;;;;;;5011755;28;20033;-67
2022/11/24 07:14:41;;;;;;;29.30;21.42;;;205.40;2252.80;;;;;;5011779;28;20030;-63
2022/11/24 07:17:06;;;;;;;26.77;20.95;;;205.30;2252.80;;;;;;5011015;28;20038;-64
2022/11/24 07:19:32;;;;;;;29.27;21.15;;;205.40;2252.80;;;;;;5007638;28;20030;-59
2022/11/24 07:21:58;;;;;;;27.73;22.45;;;205.50;2252.80;;;;;;5009145;28;20022;-58
2022/11/24 07:24:24;;;;;;;32.10;29.13;;;205.50;2252.80;;;;;;5011098;28;20030;-67
2022/11/24 07:26:50;;;;;;;14.40;11.43;;;205.50;2252.80;;;;;;5011615;28;20022;-59
2022/11/24 07:29:15;;;;;;;15.00;10.93;;;205.50;2252.80;;;;;;5011163;28;20050;-61
2022/11/24 07:31:41;;;;;;;21.27;17.65;;;205.60;2252.80;;;;;;5011435;28;20519;-58
2022/11/24 07:34:07;;;;;;;15.25;11.20;;;205.60;2252.80;;;;;;4999760;28;20041;-58
2022/11/24 07:36:33;;;;;;;15.10;11.68;;;205.50;2252.80;;;;;;4991173;28;20026;-59
2022/11/24 07:38:58;;;;;;;14.10;10.68;;;205.50;2252.80;;;;;;4991367;28;20045;-57
2022/11/24 07:41:24;;;;;;;22.60;15.18;;;205.40;2252.80;;;;;;4991343;28;20045;-66
2022/11/24 07:43:50;;;;;;;23.15;19.33;;;205.50;2252.80;;;;;;4991415;28;20076;-58
2022/11/24 07:46:18;;;;;;;29.15;21.77;;;205.60;2252.80;;;;;;4991166;28;20058;-59
2022/11/24 07:48:44;;;;;;;23.00;18.73;;;205.60;2252.80;;;;;;4991314;28;20026;-59
2022/11/24 07:51:10;;;;;;;29.98;24.20;;;205.60;2252.80;;;;;;4991240;28;20034;-58
2022/11/24 07:53:36;;;;;;;20.70;15.15;;;205.70;2252.80;;;;;;4990933;28;20049;-65
2022/11/24 07:56:05;;;;;;;17.98;14.02;;;205.70;2252.80;;;;;;4991445;28;20057;-58
2022/11/24 07:58:34;;;;;;;29.40;22.33;;;205.70;2252.80;;;;;;5001363;28;20041;-67
2022/11/24 08:01:12;;;;;;;57.03;40.30;;;205.70;2252.80;;;;;;5010920;28;20099;-58
2022/11/24 08:03:37;;;;;;;48.30;34.53;;;230.40;2252.80;;;;;;4993580;28;20030;-63
2022/11/24 08:06:03;;;;;;;42.45;29.90;;;230.40;2252.80;;;;;;4990666;28;20114;-59
2022/11/24 08:08:32;;;;;;;34.25;24.65;;;230.40;2252.80;;;;;;4991154;28;20033;-58
2022/11/24 08:10:59;;;;;;;35.78;23.25;;;230.40;2252.80;;;;;;4990669;28;20540;-58
2022/11/24 08:13:24;;;;;;;22.40;16.70;;;230.40;2252.80;;;;;;4990953;28;20061;-59
2022/11/24 08:15:50;;;;;;;22.63;14.68;;;230.40;2252.80;;;;;;4996255;28;20512;-59
2022/11/24 08:18:16;;;;;;;19.70;13.98;;;230.40;2252.80;;;;;;5010308;28;20029;-61
2022/11/24 08:20:41;;;;;;;15.57;11.60;;;230.50;2252.80;;;;;;5010522;28;20032;-59
2022/11/24 08:23:07;;;;;;;17.63;12.60;;;230.40;2252.80;;;;;;5010466;28;20030;-58
2022/11/24 08:25:33;;;;;;;15.75;11.20;;;230.50;2252.80;;;;;;5010462;28;20030;-58
2022/11/24 08:28:00;;;;;;;13.55;9.45;;;230.50;2252.80;;;;;;5010333;28;20040;-58
2022/11/24 08:30:26;;;;;;;12.70;10.93;;;230.50;2252.80;;;;;;5008686;28;20025;-58
2022/11/24 08:32:52;;;;;;;22.25;15.88;;;230.70;2252.80;;;;;;5008441;28;20109;-68
2022/11/24 08:35:18;;;;;;;60.40;41.28;;;230.80;2252.80;;;;;;5010340;28;20037;-59
2022/11/24 08:37:43;;;;;;;34.60;25.02;;;231.00;2252.80;;;;;;5010176;28;20052;-58
2022/11/24 08:40:10;;;;;;;17.58;13.02;;;231.10;2252.80;;;;;;5010491;28;20109;-59
2022/11/24 08:42:35;;;;;;;16.25;10.38;;;256.00;2252.80;;;;;;5009995;28;20042;-57
2022/11/24 08:45:01;;;;;;;23.30;19.27;;;256.00;2252.80;;;;;;5010118;28;20037;-59
2022/11/24 08:47:27;;;;;;;15.85;11.10;;;256.00;2252.80;;;;;;5009780;28;20057;-58
2022/11/24 08:49:52;;;;;;;13.98;10.75;;;256.00;2252.80;;;;;;5009836;28;20377;-59
2022/11/24 08:52:18;;;;;;;12.65;9.82;;;256.00;2252.80;;;;;;5009946;28;20101;-59
2022/11/24 08:54:44;;;;;;;28.98;24.25;;;256.00;2252.80;;;;;;5009900;28;20030;-58
2022/11/24 08:57:12;;;;;;;21.52;18.13;;;256.00;2252.80;;;;;;5010079;28;20030;-58
2022/11/24 08:59:37;;;;;;;19.27;14.75;;;256.00;2252.80;;;;;;5008824;28;20061;-58
2022/11/24 09:02:03;;;;;;;25.52;15.98;;;256.10;2252.80;;;;;;5007921;28;20429;-61
2022/11/24 09:04:29;;;;;;;19.08;14.27;;;256.00;2252.80;;;;;;5010071;28;20026;-58
2022/11/24 09:06:55;;;;;;;30.40;24.70;;;256.10;2252.80;;;;;;5009640;28;20376;-59
2022/11/24 09:09:20;;;;;;;22.38;17.10;;;256.20;2252.80;;;;;;5010001;28;20419;-59
2022/11/24 09:11:46;;;;;;;23.92;16.75;;;256.30;2252.80;;;;;;5009992;28;20057;-59
2022/11/24 09:14:11;;;;;;;160.55;117.88;;;256.40;2252.80;;;;;;5009583;28;20468;-59
2022/11/24 09:16:37;;;;;;;117.05;80.72;;;256.10;2252.80;;;;;;5000052;28;20038;-56
2022/11/24 09:19:05;;;;;;;72.05;50.88;;;256.10;2252.80;;;;;;4998463;28;20105;-57
2022/11/24 09:21:35;;;;;;;38.47;27.25;;;256.30;2252.80;;;;;;4999706;28;20061;-59
2022/11/24 09:24:00;;;;;;;42.38;32.88;;;256.40;2252.80;;;;;;4999711;28;20028;-60
2022/11/24 09:26:31;;;;;;;34.28;24.98;;;256.40;2252.80;;;;;;4999677;28;20026;-56
2022/11/24 09:28:58;;;;;;;22.58;16.77;;;256.20;2252.80;;;;;;5010240;28;20029;-57
2022/11/24 09:31:29;;;;;;;24.65;16.92;;;256.40;2252.80;;;;;;5013199;28;20461;-58
2022/11/24 09:33:55;;;;;;;16.13;14.07;;;256.40;2252.80;;;;;;5012864;28;20038;-59
2022/11/24 09:36:22;;;;;;;12.90;9.57;;;256.50;2252.80;;;;;;5013168;28;20022;-57
2022/11/24 09:38:47;;;;;;;12.10;8.55;;;256.50;2252.80;;;;;;5013294;28;20040;-58
2022/11/24 09:41:16;;;;;;;7.57;4.70;;;256.40;2252.80;;;;;;5013444;28;20113;-58
2022/11/24 09:44:07;;;;;;;6.47;4.50;;;256.50;2252.80;;;;;;5013067;28;20018;-58
2022/11/24 09:47:08;;;;;;;9.52;5.45;;;256.50;2252.80;;;;;;5012772;28;20034;-58
2022/11/24 09:49:47;;;;;;;10.73;6.22;;;256.60;2252.80;;;;;;4914410;29;20040;-57
2022/11/24 09:52:21;;;;;;;11.18;8.32;;;256.70;2252.80;;;;;;4914398;29;20079;-58
2022/11/24 09:54:59;;;;;;;8.50;6.15;;;256.80;2252.80;;;;;;4914363;29;20045;-57
2022/11/24 09:57:28;;;;;;;10.20;6.90;;;256.70;2252.80;;;;;;4914249;29;20040;-56
2022/11/24 10:00:00;;;;;;;9.35;5.78;;;256.80;2252.80;;;;;;4914173;29;20043;-58
2022/11/24 10:02:26;;;;;;;7.75;5.78;;;256.80;2252.80;;;;;;4914033;29;20028;-57
2022/11/24 10:04:53;;;;;;;5.03;3.45;;;256.90;2252.80;;;;;;4914268;29;20207;-58
2022/11/24 10:07:28;;;;;;;4.57;3.17;;;281.60;2278.40;;;;;;4914351;29;20472;-58
2022/11/24 10:10:10;;;;;;;4.85;2.88;;;281.70;2278.40;;;;;;4914118;29;20036;-58
2022/11/24 10:12:47;;;;;;;5.32;2.75;;;281.70;2278.40;;;;;;4913946;29;20079;-60
2022/11/24 10:15:20;;;;;;;4.70;3.55;;;282.00;2278.40;;;;;;4912896;29;20047;-59
2022/11/24 10:18:09;;;;;;;4.38;2.85;;;282.20;2278.40;;;;;;4895118;29;20049;-59
2022/11/24 10:20:50;;;;;;;5.32;3.85;;;282.30;2278.40;;;;;;4894578;29;20092;-60
2022/11/24 10:23:48;;;;;;;7.78;4.55;;;282.20;2278.40;;;;;;4894965;29;20044;-59
2022/11/24 10:26:21;;;;;;;7.18;3.33;;;282.30;2278.40;;;;;;4939081;28;20039;-60
2022/11/24 10:28:55;;;;;;;4.80;2.67;;;282.30;2278.40;;;;;;4992468;28;20033;-61
2022/11/24 10:31:20;;;;;;;11.00;8.10;;;282.40;2278.40;;;;;;4992985;28;20032;-60
2022/11/24 10:33:47;;;;;;;8.98;7.20;;;282.40;2278.40;;;;;;4992396;28;20113;-60
2022/11/24 10:36:33;;;;;;;3.55;2.22;;;282.40;2278.40;;;;;;4992631;28;20065;-60
2022/11/24 10:39:11;;;;;;;3.80;2.25;;;282.30;2278.40;;;;;;4978824;28;20033;-60
2022/11/24 10:41:55;;;;;;;5.15;2.50;;;282.40;2278.40;;;;;;4985098;28;20026;-60
2022/11/24 10:44:21;;;;;;;3.05;1.85;;;282.20;2278.40;;;;;;4992690;28;20384;-59
2022/11/24 10:46:47;;;;;;;6.57;3.15;;;282.10;2278.40;;;;;;4992348;28;20085;-60
2022/11/24 10:49:34;;;;;;;9.15;5.72;;;282.20;2278.40;;;;;;4992416;28;20037;-61
2022/11/24 10:52:12;;;;;;;5.72;4.35;;;282.30;2278.40;;;;;;4992439;28;20022;-59
2022/11/24 10:54:54;;;;;;;4.05;2.47;;;282.30;2278.40;;;;;;4985362;28;20507;-60
2022/11/24 10:57:37;;;;;;;5.43;2.88;;;282.20;2278.40;;;;;;4992255;28;20033;-60
2022/11/24 11:00:18;;;;;;;5.75;2.55;;;282.30;2278.40;;;;;;4991997;28;20033;-60
2022/11/24 11:02:48;;;;;;;5.32;4.18;;;282.20;2278.40;;;;;;4986011;28;20038;-60
2022/11/24 11:05:32;;;;;;;7.07;5.03;;;282.10;2278.40;;;;;;4992080;28;20026;-60
2022/11/24 11:08:13;;;;;;;4.57;2.83;;;282.20;2278.40;;;;;;4974678;28;20065;-60
2022/11/24 11:10:40;;;;;;;4.43;2.60;;;282.30;2278.40;;;;;;4985360;28;20061;-58
2022/11/24 11:13:26;;;;;;;3.65;2.47;;;282.30;2278.40;;;;;;4991684;28;20022;-57
2022/11/24 11:15:52;;;;;;;3.67;2.35;;;282.20;2278.40;;;;;;4997498;28;20129;-57
2022/11/24 11:18:19;;;;;;;6.18;3.13;;;282.30;2278.40;;;;;;5011457;28;20056;-57
2022/11/24 11:20:57;;;;;;;5.10;3.20;;;282.30;2278.40;;;;;;5011283;28;20026;-57
2022/11/24 11:23:27;;;;;;;3.53;2.40;;;282.20;2278.40;;;;;;5011111;28;20018;-58
2022/11/24 11:26:30;;;;;;;5.82;4.55;;;282.40;2278.40;;;;;;5011317;28;20033;-60
2022/11/24 11:29:15;;;;;;;7.22;4.95;;;282.50;2278.40;;;;;;4912424;29;20040;-60
2022/11/24 11:31:41;;;;;;;11.50;10.30;;;307.30;2304.00;;;;;;4912658;29;20039;-59
2022/11/24 11:34:16;;;;;;;4.47;3.17;;;307.50;2304.00;;;;;;4912373;29;20054;-59
2022/11/24 11:36:44;;;;;;;10.32;5.35;;;307.60;2304.00;;;;;;4912726;29;20492;-60
2022/11/24 11:39:39;;;;;;;4.50;3.08;;;307.70;2304.00;;;;;;4912609;29;20040;-59
2022/11/24 11:42:31;;;;;;;3.72;2.40;;;307.60;2304.00;;;;;;4910840;29;20036;-59
2022/11/24 11:45:09;;;;;;;4.35;3.00;;;307.60;2304.00;;;;;;4912103;29;20126;-60
2022/11/24 11:48:00;;;;;;;6.00;2.83;;;307.70;2304.00;;;;;;4912311;29;20044;-60
2022/11/24 11:50:40;;;;;;;10.15;8.38;;;307.70;2304.00;;;;;;4911740;29;20113;-59
2022/11/24 11:53:12;;;;;;;8.43;4.65;;;307.80;2304.00;;;;;;4911943;29;20076;-59
2022/11/24 11:56:00;;;;;;;5.38;3.17;;;307.70;2304.00;;;;;;4912343;29;20570;-57
2022/11/24 11:58:26;;;;;;;6.82;4.00;;;307.80;2304.00;;;;;;4909245;29;20040;-58
2022/11/24 12:01:04;;;;;;;13.25;9.95;;;307.80;2304.00;;;;;;4910462;29;20533;-59
2022/11/24 12:03:48;;;;;;;5.88;4.03;;;307.80;2304.00;;;;;;4910384;29;20021;-60
2022/11/24 12:06:39;;;;;;;7.82;6.53;;;307.80;2304.00;;;;;;4980994;28;20030;-61
2022/11/24 12:09:11;;;;;;;7.28;5.18;;;307.80;2304.00;;;;;;5008961;28;20072;-59
2022/11/24 12:11:44;;;;;;;15.48;8.23;;;307.80;2304.00;;;;;;5008378;28;20208;-59
2022/11/24 12:14:44;;;;;;;8.25;3.97;;;307.80;2304.00;;;;;;5010767;28;20092;-60
2022/11/24 12:17:31;;;;;;;17.48;9.80;;;307.70;2278.40;;;;;;5010687;28;20054;-60
2022/11/24 12:20:25;;;;;;;11.95;8.68;;;307.70;2304.00;;;;;;5010282;28;20469;-60
2022/11/24 12:23:08;;;;;;;11.95;7.00;;;307.70;2304.00;;;;;;5010368;28;20037;-59
2022/11/24 12:25:44;;;;;;;8.47;6.03;;;307.70;2304.00;;;;;;5010335;28;20106;-60
2022/11/24 12:28:21;;;;;;;8.10;6.25;;;307.60;2304.00;;;;;;5010431;28;20515;-60
2022/11/24 12:31:11;;;;;;;12.50;8.02;;;307.70;2304.00;;;;;;5010039;28;20025;-60
2022/11/24 12:34:10;;;;;;;5.32;3.35;;;307.60;2304.00;;;;;;5010458;28;20060;-60
2022/11/24 12:36:48;;;;;;;8.18;5.70;;;307.40;2304.00;;;;;;5010051;28;20057;-59